sensor_id;sensor_type;location;lat;lon;timestamp;pressure;altitude;pressure_sealevel;temperature;humidity
55934;BME280;41839;41.386;2.082;2023-03-16T00:00:23;99874.28;;;16.49;59.83
55934;BME280;41839;41.386;2.082;2023-03-16T00:02:49;99907.56;;;16.69;59.85
55934;BME280;41839;41.386;2.082;2023-03-16T00:05:15;99907.56;;;16.69;59.71
55934;BME280;41839;41.386;2.082;2023-03-16T00:07:41;99895.25;;;16.58;60.42
55934;BME280;41839;41.386;2.082;2023-03-16T00:10:09;99882.88;;;16.47;61.08
55934;BME280;41839;41.386;2.082;2023-03-16T00:12:37;99910.81;;;16.58;61.38
55934;BME280;41839;41.386;2.082;2023-03-16T00:15:03;99862.81;;;16.40;61.04
55934;BME280;41839;41.386;2.082;2023-03-16T00:17:28;99899.75;;;16.67;61.26
55934;BME280;41839;41.386;2.082;2023-03-16T00:19:55;99905.03;;;16.70;60.98
55934;BME280;41839;41.386;2.082;2023-03-16T00:22:29;99900.75;;;16.72;61.01
55934;BME280;41839;41.386;2.082;2023-03-16T00:24:55;99903.41;;;16.75;60.59
55934;BME280;41839;41.386;2.082;2023-03-16T00:27:23;99900.75;;;16.72;60.91
55934;BME280;41839;41.386;2.082;2023-03-16T00:29:49;99901.56;;;16.71;60.91
55934;BME280;41839;41.386;2.082;2023-03-16T00:32:24;99903.31;;;16.71;61.49
55934;BME280;41839;41.386;2.082;2023-03-16T00:34:49;99903.31;;;16.71;61.26
55934;BME280;41839;41.386;2.082;2023-03-16T00:37:18;99893.72;;;16.68;61.21
55934;BME280;41839;41.386;2.082;2023-03-16T00:39:45;99896.38;;;16.70;61.38
55934;BME280;41839;41.386;2.082;2023-03-16T00:42:12;99883.25;;;16.65;61.45
55934;BME280;41839;41.386;2.082;2023-03-16T00:44:39;99891.13;;;16.68;61.42
55934;BME280;41839;41.386;2.082;2023-03-16T00:47:06;99896.44;;;16.74;61.52
55934;BME280;41839;41.386;2.082;2023-03-16T00:49:33;99887.69;;;16.69;61.35
55934;BME280;41839;41.386;2.082;2023-03-16T00:52:02;99897.31;;;16.73;61.37
55934;BME280;41839;41.386;2.082;2023-03-16T00:54:30;99901.63;;;16.74;61.67
55934;BME280;41839;41.386;2.082;2023-03-16T00:56:59;99901.56;;;16.71;61.98
55934;BME280;41839;41.386;2.082;2023-03-16T00:59:25;99906.06;;;16.77;61.60
55934;BME280;41839;41.386;2.082;2023-03-16T01:01:54;99907.84;;;16.79;61.41
55934;BME280;41839;41.386;2.082;2023-03-16T01:04:21;99896.53;;;16.76;61.11
55934;BME280;41839;41.386;2.082;2023-03-16T01:06:47;99878.13;;;16.67;61.47
55934;BME280;41839;41.386;2.082;2023-03-16T01:09:13;99884.25;;;16.70;61.42
55934;BME280;41839;41.386;2.082;2023-03-16T01:11:40;99880.72;;;16.68;61.20
55934;BME280;41839;41.386;2.082;2023-03-16T01:14:09;99869.41;;;16.63;60.88
55934;BME280;41839;41.386;2.082;2023-03-16T01:16:35;99894.56;;;16.67;61.07
55934;BME280;41839;41.386;2.082;2023-03-16T01:19:00;99878.81;;;16.59;60.80
55934;BME280;41839;41.386;2.082;2023-03-16T01:21:26;99882.25;;;16.58;60.97
55934;BME280;41839;41.386;2.082;2023-03-16T01:23:52;99894.56;;;16.67;61.04
55934;BME280;41839;41.386;2.082;2023-03-16T01:26:19;99893.78;;;16.70;61.01
55934;BME280;41839;41.386;2.082;2023-03-16T01:28:45;99887.44;;;16.57;60.72
55934;BME280;41839;41.386;2.082;2023-03-16T01:31:12;99880.41;;;16.53;60.45
55934;BME280;41839;41.386;2.082;2023-03-16T01:33:39;99889.97;;;16.54;60.66
55934;BME280;41839;41.386;2.082;2023-03-16T01:36:07;99886.41;;;16.50;60.53
55934;BME280;41839;41.386;2.082;2023-03-16T01:38:34;99760.31;;;15.80;60.15
55934;BME280;41839;41.386;2.082;2023-03-16T01:41:00;99880.31;;;16.48;60.23
55934;BME280;41839;41.386;2.082;2023-03-16T01:43:27;99872.53;;;16.50;59.92
55934;BME280;41839;41.386;2.082;2023-03-16T01:51:58;99871.47;;;16.39;59.48
55934;BME280;41839;41.386;2.082;2023-03-16T01:57:31;99852.03;;;16.23;59.25
55934;BME280;41839;41.386;2.082;2023-03-16T02:00:10;99864.28;;;16.28;59.18
55934;BME280;41839;41.386;2.082;2023-03-16T02:02:43;99864.34;;;16.30;59.12
55934;BME280;41839;41.386;2.082;2023-03-16T02:05:18;99858.28;;;16.29;58.95
55934;BME280;41839;41.386;2.082;2023-03-16T02:07:48;99857.41;;;16.30;58.42
55934;BME280;41839;41.386;2.082;2023-03-16T02:10:17;99860.03;;;16.32;58.30
55934;BME280;41839;41.386;2.082;2023-03-16T02:12:43;99852.25;;;16.32;57.96
55934;BME280;41839;41.386;2.082;2023-03-16T02:15:25;99841.84;;;16.30;57.86
55934;BME280;41839;41.386;2.082;2023-03-16T02:17:51;99822.56;;;16.19;57.83
55934;BME280;41839;41.386;2.082;2023-03-16T02:23:06;99845.19;;;16.25;57.78
55934;BME280;41839;41.386;2.082;2023-03-16T02:25:55;99835.25;;;16.07;58.22
55934;BME280;41839;41.386;2.082;2023-03-16T02:31:01;99805.28;;;15.82;57.58
55934;BME280;41839;41.386;2.082;2023-03-16T02:33:27;99825.72;;;15.70;57.60
55934;BME280;41839;41.386;2.082;2023-03-16T02:35:54;99833.50;;;15.70;57.80
55934;BME280;41839;41.386;2.082;2023-03-16T02:38:20;99819.56;;;15.66;57.25
55934;BME280;41839;41.386;2.082;2023-03-16T02:40:54;99818.59;;;15.61;58.01
55934;BME280;41839;41.386;2.082;2023-03-16T02:43:25;99813.59;;;15.67;58.46
55934;BME280;41839;41.386;2.082;2023-03-16T02:45:55;99825.00;;;15.74;58.93
55934;BME280;41839;41.386;2.082;2023-03-16T02:48:44;99814.69;;;15.77;58.92
55934;BME280;41839;41.386;2.082;2023-03-16T02:51:12;99806.13;;;15.81;58.74
55934;BME280;41839;41.386;2.082;2023-03-16T02:53:38;99794.16;;;15.86;58.43
55934;BME280;41839;41.386;2.082;2023-03-16T02:56:04;99801.16;;;15.90;58.43
55934;BME280;41839;41.386;2.082;2023-03-16T02:58:29;99791.59;;;15.87;58.43
55934;BME280;41839;41.386;2.082;2023-03-16T03:00:56;99796.78;;;15.87;58.35
55934;BME280;41839;41.386;2.082;2023-03-16T03:03:22;99797.69;;;15.89;57.83
55934;BME280;41839;41.386;2.082;2023-03-16T03:05:47;99795.78;;;15.82;57.33
55934;BME280;41839;41.386;2.082;2023-03-16T03:08:13;99789.91;;;15.89;56.86
55934;BME280;41839;41.386;2.082;2023-03-16T03:10:39;99793.31;;;15.88;56.72
55934;BME280;41839;41.386;2.082;2023-03-16T03:13:04;99789.56;;;15.76;57.21
55934;BME280;41839;41.386;2.082;2023-03-16T03:15:32;99797.34;;;15.74;57.41
55934;BME280;41839;41.386;2.082;2023-03-16T03:17:58;99788.63;;;15.72;57.23
55934;BME280;41839;41.386;2.082;2023-03-16T03:20:23;99691.16;;;15.08;57.34
55934;BME280;41839;41.386;2.082;2023-03-16T03:22:50;99785.84;;;15.66;57.15
55934;BME280;41839;41.386;2.082;2023-03-16T03:25:17;99791.78;;;15.60;57.16
55934;BME280;41839;41.386;2.082;2023-03-16T03:27:44;99790.72;;;15.52;56.95
55934;BME280;41839;41.386;2.082;2023-03-16T03:30:12;99788.56;;;15.34;57.37
55934;BME280;41839;41.386;2.082;2023-03-16T03:32:39;99796.19;;;15.30;57.68
55934;BME280;41839;41.386;2.082;2023-03-16T03:35:05;99791.84;;;15.27;57.85
55934;BME280;41839;41.386;2.082;2023-03-16T03:37:31;99785.84;;;15.30;57.98
55934;BME280;41839;41.386;2.082;2023-03-16T03:39:57;99794.44;;;15.27;58.06
55934;BME280;41839;41.386;2.082;2023-03-16T03:42:22;99782.06;;;15.17;58.30
55934;BME280;41839;41.386;2.082;2023-03-16T03:44:51;99788.00;;;15.13;58.57
55934;BME280;41839;41.386;2.082;2023-03-16T03:47:18;99784.56;;;15.14;59.26
55934;BME280;41839;41.386;2.082;2023-03-16T03:49:43;99788.34;;;15.27;59.12
55934;BME280;41839;41.386;2.082;2023-03-16T03:52:09;99785.00;;;15.31;58.93
55934;BME280;41839;41.386;2.082;2023-03-16T03:54:35;99773.81;;;15.32;58.90
55934;BME280;41839;41.386;2.082;2023-03-16T03:57:01;99759.84;;;15.27;59.10
55934;BME280;41839;41.386;2.082;2023-03-16T03:59:27;99771.78;;;15.20;58.20
55934;BME280;41839;41.386;2.082;2023-03-16T04:01:52;99783.84;;;15.18;58.12
55934;BME280;41839;41.386;2.082;2023-03-16T04:04:19;99769.78;;;15.10;58.47
55934;BME280;41839;41.386;2.082;2023-03-16T04:06:45;99783.84;;;15.19;58.56
55934;BME280;41839;41.386;2.082;2023-03-16T04:09:10;99749.53;;;14.93;58.38
55934;BME280;41839;41.386;2.082;2023-03-16T04:11:36;99772.75;;;14.90;58.35
55934;BME280;41839;41.386;2.082;2023-03-16T04:14:02;99795.50;;;15.02;57.79
55934;BME280;41839;41.386;2.082;2023-03-16T04:16:28;99778.25;;;14.71;58.29
55934;BME280;41839;41.386;2.082;2023-03-16T04:18:54;99801.53;;;14.71;58.98
55934;BME280;41839;41.386;2.082;2023-03-16T04:21:20;99801.47;;;14.68;58.69
55934;BME280;41839;41.386;2.082;2023-03-16T04:23:48;99797.19;;;14.68;58.64
55934;BME280;41839;41.386;2.082;2023-03-16T04:26:14;99796.44;;;14.74;58.70
55934;BME280;41839;41.386;2.082;2023-03-16T04:28:39;99798.75;;;14.63;58.90
55934;BME280;41839;41.386;2.082;2023-03-16T04:31:07;99798.94;;;14.69;58.70
55934;BME280;41839;41.386;2.082;2023-03-16T04:33:34;99805.22;;;14.78;58.41
55934;BME280;41839;41.386;2.082;2023-03-16T04:36:00;99803.44;;;14.76;58.53
55934;BME280;41839;41.386;2.082;2023-03-16T04:38:27;99808.78;;;14.83;58.09
55934;BME280;41839;41.386;2.082;2023-03-16T04:40:53;99814.75;;;14.80;57.97
55934;BME280;41839;41.386;2.082;2023-03-16T04:43:18;99813.94;;;14.81;58.05
55934;BME280;41839;41.386;2.082;2023-03-16T04:45:44;99810.16;;;14.70;58.13
55934;BME280;41839;41.386;2.082;2023-03-16T04:48:09;99818.28;;;14.82;58.09
55934;BME280;41839;41.386;2.082;2023-03-16T04:50:35;99806.09;;;14.80;57.56
55934;BME280;41839;41.386;2.082;2023-03-16T04:53:01;99809.66;;;14.83;57.52
55934;BME280;41839;41.386;2.082;2023-03-16T04:55:28;99806.97;;;14.80;57.68
55934;BME280;41839;41.386;2.082;2023-03-16T04:57:54;99801.81;;;14.80;57.71
55934;BME280;41839;41.386;2.082;2023-03-16T05:00:19;99806.97;;;14.79;57.69
55934;BME280;41839;41.386;2.082;2023-03-16T05:02:46;99800.03;;;14.78;57.69
55934;BME280;41839;41.386;2.082;2023-03-16T05:05:12;99772.19;;;14.70;58.00
55934;BME280;41839;41.386;2.082;2023-03-16T05:07:40;99799.59;;;14.94;57.98
55934;BME280;41839;41.386;2.082;2023-03-16T05:10:10;99804.94;;;15.00;57.39
55934;BME280;41839;41.386;2.082;2023-03-16T05:12:36;99795.53;;;15.04;57.30
55934;BME280;41839;41.386;2.082;2023-03-16T05:15:02;99791.22;;;15.04;57.26
55934;BME280;41839;41.386;2.082;2023-03-16T05:17:27;99800.94;;;15.11;56.92
55934;BME280;41839;41.386;2.082;2023-03-16T05:19:53;99807.00;;;15.13;56.65
55934;BME280;41839;41.386;2.082;2023-03-16T05:22:18;99798.53;;;15.19;56.41
55934;BME280;41839;41.386;2.082;2023-03-16T05:24:44;99797.69;;;15.20;56.05
55934;BME280;41839;41.386;2.082;2023-03-16T05:27:09;99794.13;;;15.15;56.25
55934;BME280;41839;41.386;2.082;2023-03-16T05:29:35;99791.44;;;15.12;56.33
55934;BME280;41839;41.386;2.082;2023-03-16T05:32:01;99807.22;;;15.21;56.21
55934;BME280;41839;41.386;2.082;2023-03-16T05:34:26;99785.41;;;15.11;56.16
55934;BME280;41839;41.386;2.082;2023-03-16T05:36:52;99757.91;;;14.85;56.71
55934;BME280;41839;41.386;2.082;2023-03-16T05:39:17;99785.78;;;14.93;56.49
55934;BME280;41839;41.386;2.082;2023-03-16T05:41:43;99797.03;;;14.95;56.25
55934;BME280;41839;41.386;2.082;2023-03-16T05:44:09;99794.25;;;14.88;55.90
55934;BME280;41839;41.386;2.082;2023-03-16T05:46:35;99795.19;;;14.90;55.91
55934;BME280;41839;41.386;2.082;2023-03-16T05:49:01;99803.13;;;14.96;55.56
55934;BME280;41839;41.386;2.082;2023-03-16T05:51:26;99796.31;;;14.99;55.39
55934;BME280;41839;41.386;2.082;2023-03-16T05:53:53;99762.97;;;14.80;54.86
55934;BME280;41839;41.386;2.082;2023-03-16T05:56:25;99785.88;;;14.96;54.75
55934;BME280;41839;41.386;2.082;2023-03-16T05:58:54;99791.91;;;14.97;55.27
55934;BME280;41839;41.386;2.082;2023-03-16T06:01:21;99797.72;;;14.88;55.32
55934;BME280;41839;41.386;2.082;2023-03-16T06:03:47;99801.00;;;14.83;55.69
55934;BME280;41839;41.386;2.082;2023-03-16T06:06:15;99800.91;;;14.78;55.68
55934;BME280;41839;41.386;2.082;2023-03-16T06:08:41;99793.13;;;14.78;55.44
55934;BME280;41839;41.386;2.082;2023-03-16T06:11:06;99792.47;;;14.85;55.42
55934;BME280;41839;41.386;2.082;2023-03-16T06:13:32;99800.13;;;14.81;55.66
55934;BME280;41839;41.386;2.082;2023-03-16T06:15:57;99795.41;;;14.67;55.60
55934;BME280;41839;41.386;2.082;2023-03-16T06:18:23;99798.09;;;14.70;55.51
55934;BME280;41839;41.386;2.082;2023-03-16T06:20:48;99771.56;;;14.49;55.22
55934;BME280;41839;41.386;2.082;2023-03-16T06:23:14;99795.31;;;14.64;55.37
55934;BME280;41839;41.386;2.082;2023-03-16T06:25:39;99794.34;;;14.59;55.30
55934;BME280;41839;41.386;2.082;2023-03-16T06:28:06;99797.19;;;14.68;55.21
55934;BME280;41839;41.386;2.082;2023-03-16T06:30:31;99808.06;;;14.87;54.77
55934;BME280;41839;41.386;2.082;2023-03-16T06:32:57;99812.66;;;14.98;54.44
55934;BME280;41839;41.386;2.082;2023-03-16T06:35:25;99812.19;;;15.13;56.96
55934;BME280;41839;41.386;2.082;2023-03-16T06:37:50;99816.06;;;15.29;60.12
55934;BME280;41839;41.386;2.082;2023-03-16T06:40:16;99821.47;;;15.38;58.36
55934;BME280;41839;41.386;2.082;2023-03-16T06:42:42;99815.72;;;15.50;56.90
55934;BME280;41839;41.386;2.082;2023-03-16T06:45:08;99810.53;;;15.50;54.87
55934;BME280;41839;41.386;2.082;2023-03-16T06:47:35;99818.16;;;15.42;55.35
55934;BME280;41839;41.386;2.082;2023-03-16T06:50:01;99818.94;;;15.40;56.82
55934;BME280;41839;41.386;2.082;2023-03-16T06:52:26;99812.81;;;15.38;56.26
55934;BME280;41839;41.386;2.082;2023-03-16T06:54:52;99810.47;;;15.47;57.35
55934;BME280;41839;41.386;2.082;2023-03-16T06:57:17;99810.59;;;15.52;56.09
55934;BME280;41839;41.386;2.082;2023-03-16T06:59:43;99793.09;;;15.43;54.08
55934;BME280;41839;41.386;2.082;2023-03-16T07:02:11;99825.72;;;15.70;54.68
55934;BME280;41839;41.386;2.082;2023-03-16T07:04:38;99828.53;;;15.77;55.24
55934;BME280;41839;41.386;2.082;2023-03-16T07:07:03;99837.47;;;15.90;54.37
55934;BME280;41839;41.386;2.082;2023-03-16T07:09:29;99825.50;;;15.95;53.00
55934;BME280;41839;41.386;2.082;2023-03-16T07:11:54;99808.81;;;15.85;52.52
55934;BME280;41839;41.386;2.082;2023-03-16T07:14:20;99838.59;;;16.01;54.12
55934;BME280;41839;41.386;2.082;2023-03-16T07:16:47;99828.25;;;16.03;52.43
55934;BME280;41839;41.386;2.082;2023-03-16T07:19:13;99841.75;;;16.67;64.93
55934;BME280;41839;41.386;2.082;2023-03-16T07:21:38;99840.81;;;17.56;63.59
55934;BME280;41839;41.386;2.082;2023-03-16T07:24:06;99816.38;;;17.99;61.72
55934;BME280;41839;41.386;2.082;2023-03-16T07:26:32;99848.38;;;18.51;59.75
55934;BME280;41839;41.386;2.082;2023-03-16T07:28:58;99851.34;;;18.79;58.40
55934;BME280;41839;41.386;2.082;2023-03-16T07:31:24;99846.31;;;18.94;58.23
55934;BME280;41839;41.386;2.082;2023-03-16T07:33:49;99854.41;;;19.19;56.83
55934;BME280;41839;41.386;2.082;2023-03-16T07:36:15;99855.34;;;19.25;56.19
55934;BME280;41839;41.386;2.082;2023-03-16T07:38:41;99863.13;;;19.21;54.65
55934;BME280;41839;41.386;2.082;2023-03-16T07:41:06;99865.81;;;19.28;53.47
55934;BME280;41839;41.386;2.082;2023-03-16T07:43:32;99870.25;;;19.39;53.51
55934;BME280;41839;41.386;2.082;2023-03-16T07:45:57;99870.34;;;19.49;51.84
55934;BME280;41839;41.386;2.082;2023-03-16T07:48:23;99856.34;;;19.38;53.02
55934;BME280;41839;41.386;2.082;2023-03-16T07:50:49;99866.84;;;19.47;52.48
55934;BME280;41839;41.386;2.082;2023-03-16T07:53:15;99852.09;;;19.51;52.35
55934;BME280;41839;41.386;2.082;2023-03-16T07:55:41;99866.22;;;19.67;52.26
55934;BME280;41839;41.386;2.082;2023-03-16T07:58:07;99853.09;;;19.64;51.01
55934;BME280;41839;41.386;2.082;2023-03-16T08:00:34;99857.50;;;19.69;51.30
55934;BME280;41839;41.386;2.082;2023-03-16T08:03:00;99862.75;;;19.72;51.35
55934;BME280;41839;41.386;2.082;2023-03-16T08:05:26;99851.41;;;19.64;50.01
55934;BME280;41839;41.386;2.082;2023-03-16T08:07:52;99833.84;;;19.49;51.60
55934;BME280;41839;41.386;2.082;2023-03-16T08:10:17;99858.47;;;19.77;51.24
55934;BME280;41839;41.386;2.082;2023-03-16T08:12:43;99855.06;;;19.91;50.99
55934;BME280;41839;41.386;2.082;2023-03-16T08:15:09;99863.84;;;19.99;48.41
55934;BME280;41839;41.386;2.082;2023-03-16T08:17:36;99855.13;;;19.95;49.77
55934;BME280;41839;41.386;2.082;2023-03-16T08:20:04;99856.09;;;20.11;48.52
55934;BME280;41839;41.386;2.082;2023-03-16T08:22:35;99855.25;;;20.15;47.76
55934;BME280;41839;41.386;2.082;2023-03-16T08:25:02;99858.81;;;20.31;48.13
55934;BME280;41839;41.386;2.082;2023-03-16T08:27:28;99867.63;;;20.47;49.24
55934;BME280;41839;41.386;2.082;2023-03-16T08:29:53;99871.25;;;20.63;46.34
55934;BME280;41839;41.386;2.082;2023-03-16T08:32:19;99856.50;;;20.82;48.18
55934;BME280;41839;41.386;2.082;2023-03-16T08:34:44;99848.69;;;20.89;47.36
55934;BME280;41839;41.386;2.082;2023-03-16T08:37:11;99869.63;;;20.95;45.12
55934;BME280;41839;41.386;2.082;2023-03-16T08:39:39;99872.25;;;21.05;46.81
55934;BME280;41839;41.386;2.082;2023-03-16T08:42:06;99860.94;;;21.18;45.96
55934;BME280;41839;41.386;2.082;2023-03-16T08:44:32;99831.28;;;21.08;41.96
55934;BME280;41839;41.386;2.082;2023-03-16T08:46:58;99852.22;;;21.04;45.11
55934;BME280;41839;41.386;2.082;2023-03-16T08:49:24;99851.31;;;21.02;47.02
55934;BME280;41839;41.386;2.082;2023-03-16T08:51:50;99876.66;;;21.16;47.19
55934;BME280;41839;41.386;2.082;2023-03-16T08:54:15;99871.44;;;21.24;47.08
55934;BME280;41839;41.386;2.082;2023-03-16T08:56:41;99855.75;;;21.19;46.83
55934;BME280;41839;41.386;2.082;2023-03-16T08:59:07;99873.25;;;21.37;46.34
55934;BME280;41839;41.386;2.082;2023-03-16T09:01:33;99861.03;;;21.38;46.44
55934;BME280;41839;41.386;2.082;2023-03-16T09:03:58;99866.28;;;21.38;46.55
55934;BME280;41839;41.386;2.082;2023-03-16T09:06:25;99859.31;;;21.51;46.40
55934;BME280;41839;41.386;2.082;2023-03-16T09:08:51;99860.19;;;21.60;44.68
55934;BME280;41839;41.386;2.082;2023-03-16T09:11:18;99869.78;;;21.64;45.79
55934;BME280;41839;41.386;2.082;2023-03-16T09:13:44;99868.91;;;21.67;45.47
55934;BME280;41839;41.386;2.082;2023-03-16T09:16:11;99872.41;;;21.78;43.33
55934;BME280;41839;41.386;2.082;2023-03-16T09:18:37;99855.81;;;21.76;44.83
55934;BME280;41839;41.386;2.082;2023-03-16T09:21:06;99868.94;;;21.90;39.70
55934;BME280;41839;41.386;2.082;2023-03-16T09:23:32;99876.75;;;21.95;44.30
55934;BME280;41839;41.386;2.082;2023-03-16T09:26:03;99882.00;;;21.99;43.59
55934;BME280;41839;41.386;2.082;2023-03-16T09:28:31;99878.50;;;22.05;44.09
55934;BME280;41839;41.386;2.082;2023-03-16T09:30:57;99880.25;;;22.12;43.55
55934;BME280;41839;41.386;2.082;2023-03-16T09:33:24;99879.38;;;22.22;43.49
55934;BME280;41839;41.386;2.082;2023-03-16T09:35:51;99869.75;;;22.38;42.86
55934;BME280;41839;41.386;2.082;2023-03-16T09:38:18;99876.75;;;22.42;41.11
55934;BME280;41839;41.386;2.082;2023-03-16T09:40:45;99874.94;;;22.56;42.29
55934;BME280;41839;41.386;2.082;2023-03-16T09:46:15;99859.16;;;22.70;41.64
55934;BME280;41839;41.386;2.082;2023-03-16T09:48:47;99832.09;;;22.58;40.93
55934;BME280;41839;41.386;2.082;2023-03-16T09:51:19;99857.34;;;22.86;39.84
55934;BME280;41839;41.386;2.082;2023-03-16T09:53:49;99864.31;;;22.90;40.89
55934;BME280;41839;41.386;2.082;2023-03-16T09:56:33;99866.94;;;23.01;39.65
55934;BME280;41839;41.386;2.082;2023-03-16T09:59:04;99830.22;;;22.92;37.47
55934;BME280;41839;41.386;2.082;2023-03-16T10:01:45;99855.44;;;23.19;38.95
55934;BME280;41839;41.386;2.082;2023-03-16T10:09:57;99857.84;;;23.53;38.12
55934;BME280;41839;41.386;2.082;2023-03-16T10:12:30;99863.00;;;23.69;38.47
55934;BME280;41839;41.386;2.082;2023-03-16T10:15:09;99868.25;;;23.71;37.01
55934;BME280;41839;41.386;2.082;2023-03-16T10:20:06;99856.66;;;23.93;37.45
55934;BME280;41839;41.386;2.082;2023-03-16T10:22:44;99857.59;;;23.86;37.83
55934;BME280;41839;41.386;2.082;2023-03-16T10:25:19;99849.63;;;23.99;37.39
55934;BME280;41839;41.386;2.082;2023-03-16T10:27:47;99848.66;;;24.06;37.39
55934;BME280;41839;41.386;2.082;2023-03-16T10:32:45;99845.91;;;24.18;36.43
55934;BME280;41839;41.386;2.082;2023-03-16T10:40:52;99826.38;;;24.45;36.50
55934;BME280;41839;41.386;2.082;2023-03-16T10:43:18;99841.06;;;24.61;36.48
55934;BME280;41839;41.386;2.082;2023-03-16T10:45:44;99837.53;;;24.66;35.87
55934;BME280;41839;41.386;2.082;2023-03-16T10:48:16;99828.75;;;24.67;36.21
55934;BME280;41839;41.386;2.082;2023-03-16T10:50:48;99826.78;;;24.84;35.58
55934;BME280;41839;41.386;2.082;2023-03-16T10:53:24;99823.28;;;24.80;35.40
55934;BME280;41839;41.386;2.082;2023-03-16T10:55:59;99837.34;;;24.81;35.56
55934;BME280;41839;41.386;2.082;2023-03-16T10:58:30;99823.56;;;24.60;32.95
55934;BME280;41839;41.386;2.082;2023-03-16T11:00:56;99834.72;;;24.79;35.50
55934;BME280;41839;41.386;2.082;2023-03-16T11:06:18;99819.41;;;25.09;34.82
55934;BME280;41839;41.386;2.082;2023-03-16T11:08:44;99818.75;;;24.92;35.02
55934;BME280;41839;41.386;2.082;2023-03-16T11:11:29;99817.97;;;24.85;34.40
55934;BME280;41839;41.386;2.082;2023-03-16T11:13:58;99826.44;;;25.08;34.60
55934;BME280;41839;41.386;2.082;2023-03-16T11:16:30;99824.47;;;25.24;34.37
55934;BME280;41839;41.386;2.082;2023-03-16T11:19:09;99831.66;;;25.12;34.17
55934;BME280;41839;41.386;2.082;2023-03-16T11:30:15;99820.13;;;25.22;33.94
55934;BME280;41839;41.386;2.082;2023-03-16T11:32:49;99820.31;;;25.06;34.28
55934;BME280;41839;41.386;2.082;2023-03-16T11:41:08;99807.31;;;24.23;35.43
55934;BME280;41839;41.386;2.082;2023-03-16T11:47:21;99811.06;;;24.01;35.63
55934;BME280;41839;41.386;2.082;2023-03-16T11:52:21;99813.97;;;23.65;35.06
55934;BME280;41839;41.386;2.082;2023-03-16T12:00:42;99765.31;;;23.24;36.64
55934;BME280;41839;41.386;2.082;2023-03-16T12:12:23;99784.66;;;23.07;37.21
55934;BME280;41839;41.386;2.082;2023-03-16T12:15:36;99788.25;;;22.98;37.48
55934;BME280;41839;41.386;2.082;2023-03-16T12:17:41;99783.97;;;22.72;37.88
55934;BME280;41839;41.386;2.082;2023-03-16T12:22:45;99753.47;;;22.51;37.88
55934;BME280;41839;41.386;2.082;2023-03-16T12:25:18;99776.16;;;22.62;38.13
55934;BME280;41839;41.386;2.082;2023-03-16T12:27:48;99763.94;;;22.62;37.09
55934;BME280;41839;41.386;2.082;2023-03-16T12:30:41;99761.31;;;22.58;37.89
55934;BME280;41839;41.386;2.082;2023-03-16T12:50:08;99743.16;;;22.19;38.23
55934;BME280;41839;41.386;2.082;2023-03-16T12:52:47;99741.41;;;22.12;38.00
55934;BME280;41839;41.386;2.082;2023-03-16T12:58:04;99735.31;;;21.98;37.94
55934;BME280;41839;41.386;2.082;2023-03-16T13:00:38;99730.97;;;21.97;37.80
55934;BME280;41839;41.386;2.082;2023-03-16T13:03:12;99730.97;;;22.00;37.07
55934;BME280;41839;41.386;2.082;2023-03-16T13:05:45;99725.75;;;21.97;37.51
55934;BME280;41839;41.386;2.082;2023-03-16T13:08:15;99725.72;;;22.00;37.29
55934;BME280;41839;41.386;2.082;2023-03-16T13:10:42;99723.97;;;21.97;37.03
55934;BME280;41839;41.386;2.082;2023-03-16T13:13:23;99718.78;;;21.88;37.11
55934;BME280;41839;41.386;2.082;2023-03-16T13:16:01;99710.91;;;21.94;37.75
55934;BME280;41839;41.386;2.082;2023-03-16T13:18:39;99719.66;;;21.87;37.42
55934;BME280;41839;41.386;2.082;2023-03-16T13:24:11;99714.47;;;21.66;37.54
55934;BME280;41839;41.386;2.082;2023-03-16T13:26:46;99710.13;;;21.45;38.36
55934;BME280;41839;41.386;2.082;2023-03-16T13:29:27;99715.34;;;21.09;38.93
55934;BME280;41839;41.386;2.082;2023-03-16T13:31:55;99720.56;;;21.02;38.91
55934;BME280;41839;41.386;2.082;2023-03-16T13:34:26;99720.56;;;20.99;38.35
55934;BME280;41839;41.386;2.082;2023-03-16T13:36:55;99717.94;;;20.86;38.58
55934;BME280;41839;41.386;2.082;2023-03-16T13:39:24;99702.25;;;21.08;37.52
55934;BME280;41839;41.386;2.082;2023-03-16T13:44:29;99701.38;;;21.21;33.22
55934;BME280;41839;41.386;2.082;2023-03-16T13:46:56;99710.97;;;21.24;37.51
55934;BME280;41839;41.386;2.082;2023-03-16T13:49:22;99706.59;;;21.30;37.36
55934;BME280;41839;41.386;2.082;2023-03-16T13:51:47;99683.09;;;21.42;36.18
55934;BME280;41839;41.386;2.082;2023-03-16T13:56:49;99704.00;;;21.52;36.09
55934;BME280;41839;41.386;2.082;2023-03-16T13:59:16;99702.25;;;21.57;37.17
55934;BME280;41839;41.386;2.082;2023-03-16T14:01:44;99703.13;;;21.62;37.36
55934;BME280;41839;41.386;2.082;2023-03-16T14:04:11;99699.69;;;21.35;37.55
55934;BME280;41839;41.386;2.082;2023-03-16T14:06:50;99694.47;;;21.37;37.99
55934;BME280;41839;41.386;2.082;2023-03-16T14:09:20;99681.34;;;21.26;37.60
55934;BME280;41839;41.386;2.082;2023-03-16T14:11:46;99696.19;;;21.41;37.63
55934;BME280;41839;41.386;2.082;2023-03-16T14:14:22;99707.53;;;21.38;37.64
55934;BME280;41839;41.386;2.082;2023-03-16T14:16:48;99704.88;;;21.54;37.49
55934;BME280;41839;41.386;2.082;2023-03-16T14:19:20;99697.91;;;21.14;38.14
55934;BME280;41839;41.386;2.082;2023-03-16T14:21:49;99690.94;;;21.16;38.45
55934;BME280;41839;41.386;2.082;2023-03-16T14:24:29;99710.97;;;21.33;37.95
55934;BME280;41839;41.386;2.082;2023-03-16T14:26:56;99718.81;;;21.27;38.50
55934;BME280;41839;41.386;2.082;2023-03-16T14:29:27;99712.75;;;21.31;38.25
55934;BME280;41839;41.386;2.082;2023-03-16T14:31:55;99714.47;;;21.23;39.06
55934;BME280;41839;41.386;2.082;2023-03-16T14:34:33;99718.81;;;21.30;39.25
55934;BME280;41839;41.386;2.082;2023-03-16T14:37:11;99725.81;;;21.20;38.90
55934;BME280;41839;41.386;2.082;2023-03-16T14:39:38;99701.38;;;21.15;37.89
55934;BME280;41839;41.386;2.082;2023-03-16T14:42:12;99718.81;;;21.05;37.84
55934;BME280;41839;41.386;2.082;2023-03-16T14:44:39;99728.41;;;20.85;40.83
55934;BME280;41839;41.386;2.082;2023-03-16T14:47:05;99722.31;;;20.93;41.00